Time;durP1;ratioP1;P1;durP2;ratioP2;P2;SDS_P1;SDS_P2;PMS_P1;PMS_P2;Temp;Humidity;BMP_temperature;BMP_pressure;BME280_temperature;BME280_humidity;BME280_pressure;Samples;Min_cycle;Max_cycle;Signal;HPM_P1;HPM_P2
2023/02/24 00:00:52;;;;;;;49.47;20.93;;;3.90;99.90;;;3.75;70.93;99461.81;5011323;28;20222;-69
2023/02/24 00:03:21;;;;;;;35.17;20.53;;;3.90;99.90;;;3.78;70.80;99459.28;5018450;28;20207;-71
2023/02/24 00:05:50;;;;;;;33.27;21.33;;;4.00;99.90;;;3.80;70.72;99455.91;5020964;28;20208;-69
2023/02/24 00:08:18;;;;;;;36.07;21.20;;;4.00;99.90;;;3.85;70.94;99444.03;5009404;28;20254;-69
2023/02/24 00:10:48;;;;;;;35.43;20.63;;;4.00;99.90;;;3.90;70.18;99444.06;5010674;28;20215;-68
2023/02/24 00:13:21;;;;;;;32.87;20.00;;;4.00;99.90;;;3.92;70.51;99432.19;5013025;28;20257;-69
2023/02/24 00:16:01;;;;;;;35.83;20.60;;;4.10;99.90;;;3.98;70.15;99431.38;5011772;28;20206;-69
2023/02/24 00:18:32;;;;;;;32.60;21.43;;;4.10;99.90;;;4.00;69.78;99437.34;5008636;28;20203;-71
2023/02/24 00:21:07;;;;;;;32.97;21.57;;;4.10;99.90;;;4.03;70.56;99422.06;5009488;28;20234;-69
2023/02/24 00:23:37;;;;;;;34.97;21.20;;;4.10;99.90;;;4.04;70.55;99421.19;5003809;28;20609;-69
2023/02/24 00:26:07;;;;;;;33.23;20.93;;;4.20;99.90;;;4.06;69.84;99416.97;5011461;28;20207;-69
2023/02/24 00:28:37;;;;;;;34.73;20.87;;;4.20;99.90;;;4.06;69.73;99409.34;5019511;28;20222;-68
2023/02/24 00:31:08;;;;;;;36.53;21.33;;;4.20;99.90;;;4.09;69.98;99404.25;5014116;28;20208;-71
2023/02/24 00:33:38;;;;;;;34.40;20.83;;;4.20;99.90;;;4.10;69.90;99403.41;5015367;28;20615;-71
2023/02/24 00:36:10;;;;;;;29.50;18.73;;;4.20;99.90;;;4.11;70.42;99405.09;5013771;28;20637;-71
2023/02/24 00:38:43;;;;;;;34.17;20.87;;;4.20;99.90;;;4.09;70.05;99387.25;5015679;28;20571;-70
2023/02/24 00:41:15;;;;;;;33.60;20.27;;;4.20;99.90;;;4.11;70.56;99387.25;5011871;28;20207;-71
2023/02/24 00:43:46;;;;;;;35.67;20.73;;;4.20;99.90;;;4.13;71.21;99389.81;5013082;28;20203;-71
2023/02/24 00:46:16;;;;;;;34.03;20.87;;;4.30;99.90;;;4.13;70.84;99377.91;5009987;28;20286;-71
2023/02/24 00:48:47;;;;;;;35.13;20.77;;;4.30;99.90;;;4.14;71.00;99379.63;5014673;28;20247;-70
2023/02/24 00:51:22;;;;;;;33.33;19.87;;;4.30;99.90;;;4.17;70.83;99378.78;5016089;28;20257;-71
2023/02/24 00:53:54;;;;;;;34.40;20.27;;;4.30;99.90;;;4.19;70.37;99377.06;5014332;28;20214;-71
2023/02/24 00:56:24;;;;;;;36.73;21.63;;;4.40;99.90;;;4.23;70.71;99376.22;5016193;28;20199;-70
2023/02/24 00:58:54;;;;;;;30.23;19.47;;;4.30;99.90;;;4.25;70.56;99367.75;5013957;28;20592;-70
2023/02/24 01:01:25;;;;;;;32.37;21.40;;;4.40;99.90;;;4.28;70.38;99370.31;5013813;28;20199;-70
2023/02/24 01:03:54;;;;;;;32.43;20.43;;;4.40;99.90;;;4.31;70.63;99365.22;5016097;28;20207;-70
2023/02/24 01:06:28;;;;;;;33.40;20.73;;;4.40;99.90;;;4.35;70.92;99346.53;5014880;28;20566;-70
2023/02/24 01:08:59;;;;;;;33.77;20.63;;;4.50;99.90;;;4.40;70.38;99345.69;5013925;28;20223;-69
2023/02/24 01:14:23;;;;;;;33.97;21.60;;;4.50;99.90;;;4.47;70.10;99343.16;5014219;28;20211;-69
2023/02/24 01:16:52;;;;;;;34.60;21.00;;;4.60;99.90;;;4.50;70.40;99344.88;5011319;28;20199;-69
2023/02/24 01:19:29;;;;;;;30.63;20.97;;;4.60;99.90;;;4.51;71.07;99337.19;5015384;28;20204;-70
2023/02/24 01:21:59;;;;;;;34.70;21.07;;;4.60;99.90;;;4.53;70.07;99332.13;5014351;28;20618;-73
2023/02/24 01:24:31;;;;;;;33.63;20.77;;;4.70;99.90;;;4.56;70.28;99332.94;5015964;28;20298;-69
2023/02/24 01:27:00;;;;;;;36.20;20.37;;;4.60;99.90;;;4.57;70.28;99331.28;5009342;28;20742;-70
2023/02/24 01:29:30;;;;;;;37.10;20.47;;;4.60;99.90;;;4.56;70.66;99319.34;5014442;28;20710;-69
2023/02/24 01:31:59;;;;;;;35.53;21.10;;;4.60;99.90;;;4.57;70.91;99323.63;5009088;28;20298;-68
2023/02/24 01:34:29;;;;;;;40.00;21.53;;;4.60;99.90;;;4.59;70.94;99316.78;5010138;28;20293;-70
2023/02/24 01:36:57;;;;;;;34.27;19.90;;;4.70;99.90;;;4.61;71.09;99310.00;5013056;28;20250;-70
2023/02/24 01:39:26;;;;;;;37.17;21.10;;;4.70;99.90;;;4.65;71.16;99305.75;5014346;28;20226;-72
2023/02/24 01:41:58;;;;;;;30.80;19.87;;;4.70;99.90;;;4.69;70.77;99298.09;5010242;28;20647;-69
2023/02/24 01:45:11;;;;;;;34.53;20.70;;;4.80;99.90;;;4.71;70.67;99295.53;5005245;28;20215;-70
2023/02/24 01:47:41;;;;;;;29.33;19.67;;;4.80;99.90;;;4.72;71.12;99293.00;5007419;28;20383;-70
2023/02/24 01:50:14;;;;;;;34.03;20.73;;;4.80;99.90;;;4.77;71.09;99291.28;5012187;28;20230;-71
2023/02/24 01:52:46;;;;;;;34.40;20.37;;;4.90;99.90;;;4.79;70.96;99291.31;5009151;28;20204;-71
2023/02/24 01:55:22;;;;;;;30.10;19.70;;;4.90;99.90;;;4.82;71.31;99289.59;5010512;28;20195;-68
2023/02/24 01:57:54;;;;;;;31.60;20.07;;;4.90;99.90;;;4.87;71.30;99286.19;5009443;28;20199;-70
2023/02/24 02:03:24;;;;;;;34.23;21.40;;;5.00;99.90;;;4.92;70.93;99274.25;4998845;28;20204;-71
2023/02/24 02:06:00;;;;;;;36.07;22.53;;;5.00;99.90;;;4.94;71.15;99267.47;5013330;28;20234;-73
2023/02/24 02:08:29;;;;;;;33.93;20.77;;;5.00;99.90;;;4.94;71.17;99259.81;5013911;28;20261;-70
2023/02/24 02:11:03;;;;;;;30.07;19.90;;;5.00;99.90;;;4.95;71.36;99262.34;5013961;28;20219;-73
2023/02/24 02:13:34;;;;;;;37.67;20.30;;;5.00;99.90;;;4.97;71.10;99264.88;5013871;28;20254;-71
2023/02/24 02:16:53;;;;;;;36.03;21.13;;;5.00;99.90;;;4.98;71.35;99264.06;5001679;28;20196;-73
2023/02/24 02:20:26;;;;;;;38.27;21.10;;;5.10;99.90;;;4.98;71.39;99253.84;5019097;28;20210;-72
2023/02/24 02:23:58;;;;;;;34.50;20.93;;;5.10;99.90;;;4.99;71.08;99253.81;4992604;28;20212;-72
2023/02/24 02:27:02;;;;;;;32.97;19.83;;;5.10;99.90;;;5.01;71.14;99243.63;5010778;28;20207;-72
2023/02/24 02:30:16;;;;;;;34.70;20.63;;;5.10;99.90;;;5.01;71.19;99244.47;5011769;28;20234;-72
2023/02/24 02:33:11;;;;;;;33.30;21.37;;;5.10;99.90;;;5.02;70.93;99240.22;5007992;28;21500;-71
2023/02/24 02:35:53;;;;;;;34.27;21.07;;;5.10;99.90;;;5.01;71.32;99244.47;5014065;28;20204;-73
2023/02/24 02:38:29;;;;;;;38.00;21.77;;;5.10;99.90;;;5.03;71.51;99242.75;4999078;28;20196;-72
2023/02/24 02:41:11;;;;;;;33.67;22.70;;;5.10;99.90;;;5.02;71.78;99240.22;5012735;28;20282;-72
2023/02/24 02:43:48;;;;;;;34.10;21.67;;;5.10;99.90;;;5.03;71.74;99240.19;5010811;28;20234;-72
2023/02/24 02:46:33;;;;;;;38.97;22.53;;;5.10;99.90;;;5.05;71.63;99240.22;5008161;28;20199;-72
2023/02/24 02:49:17;;;;;;;35.23;21.67;;;5.10;99.90;;;5.05;71.67;99235.97;5009488;28;20239;-72
2023/02/24 02:51:51;;;;;;;31.53;19.90;;;5.20;99.90;;;5.08;71.64;99232.53;5008916;28;20578;-72
2023/02/24 02:54:29;;;;;;;33.70;22.47;;;5.10;99.90;;;5.08;71.98;99232.53;5012625;28;20195;-72
2023/02/24 02:57:05;;;;;;;36.23;21.50;;;5.20;99.90;;;5.11;72.12;99235.06;5006697;28;20202;-72
2023/02/24 02:59:39;;;;;;;38.57;23.07;;;5.20;99.90;;;5.14;72.14;99231.66;5005357;28;20199;-70
2023/02/24 03:02:13;;;;;;;34.07;21.83;;;5.20;99.90;;;5.15;72.30;99225.69;5012647;28;20269;-70
2023/02/24 03:04:45;;;;;;;36.13;22.20;;;5.30;99.90;;;5.18;72.56;99229.09;5008048;28;20208;-69
2023/02/24 03:07:18;;;;;;;37.03;21.77;;;5.30;99.90;;;5.19;72.30;99220.59;5006858;28;20568;-71
2023/02/24 03:09:51;;;;;;;41.13;22.30;;;5.30;99.90;;;5.21;73.06;99218.03;5013759;28;20223;-69
2023/02/24 03:12:24;;;;;;;36.53;23.30;;;5.30;99.90;;;5.24;72.88;99218.03;5012367;28;20285;-69
2023/02/24 03:14:58;;;;;;;39.23;23.60;;;5.30;99.90;;;5.27;73.27;99221.41;5010024;28;20265;-68
2023/02/24 03:17:32;;;;;;;38.50;23.20;;;5.40;99.90;;;5.30;72.90;99212.88;5013859;28;20213;-69
2023/02/24 03:20:14;;;;;;;36.50;23.53;;;5.40;99.90;;;5.30;73.15;99195.88;5012346;28;20259;-71
2023/02/24 03:22:50;;;;;;;39.03;23.03;;;5.40;99.90;;;5.31;73.60;99202.69;5009872;28;20208;-70
2023/02/24 03:25:27;;;;;;;37.47;23.43;;;5.40;99.90;;;5.33;74.44;99200.94;5005407;28;20222;-69
2023/02/24 03:28:04;;;;;;;43.20;24.40;;;5.40;99.90;;;5.33;74.85;99195.84;5012408;28;20686;-70
2023/02/24 03:30:42;;;;;;;38.07;24.00;;;5.40;99.90;;;5.34;74.96;99196.72;5012882;28;20211;-71
2023/02/24 03:33:23;;;;;;;38.60;23.47;;;5.40;99.90;;;5.36;75.18;99196.69;5002127;28;20238;-69
2023/02/24 03:35:51;;;;;;;39.20;24.20;;;5.50;99.90;;;5.38;75.28;99202.66;5006230;28;20234;-69
2023/02/24 03:38:23;;;;;;;38.80;23.60;;;5.50;99.90;;;5.41;75.45;99192.41;5012322;28;21782;-71
2023/02/24 03:40:52;;;;;;;36.70;23.70;;;5.50;99.90;;;5.41;75.73;99187.28;5005283;28;20568;-72
2023/02/24 03:43:27;;;;;;;33.87;23.10;;;5.50;99.90;;;5.44;75.93;99187.28;5009838;28;20214;-73
2023/02/24 03:45:57;;;;;;;40.90;23.83;;;5.50;99.90;;;5.45;76.25;99194.97;5013139;28;20590;-71
2023/02/24 03:48:28;;;;;;;37.97;23.47;;;5.60;99.90;;;5.43;76.16;99180.50;5009839;28;20300;-72
2023/02/24 03:50:59;;;;;;;37.93;23.60;;;5.60;99.90;;;5.45;76.66;99181.31;5012452;28;20219;-71
2023/02/24 03:53:47;;;;;;;38.30;23.90;;;5.60;99.90;;;5.45;76.83;99177.06;5007407;28;20620;-71
2023/02/24 03:56:28;;;;;;;37.70;24.90;;;5.60;99.90;;;5.49;77.17;99180.47;5010695;28;20211;-72
2023/02/24 03:59:13;;;;;;;37.43;23.93;;;5.60;99.90;;;5.50;77.24;99177.03;5013418;28;20214;-71
2023/02/24 04:01:56;;;;;;;45.10;25.43;;;5.60;99.90;;;5.53;77.27;99169.38;5015160;28;20207;-71
2023/02/24 04:04:32;;;;;;;36.53;24.53;;;5.60;99.90;;;5.53;77.57;99162.56;5008502;28;20207;-71
2023/02/24 04:07:09;;;;;;;45.00;25.03;;;5.60;99.90;;;5.53;77.92;99156.59;5014407;28;20557;-72
2023/02/24 04:09:49;;;;;;;40.67;24.97;;;5.60;99.90;;;5.55;78.00;99154.88;5017424;28;20222;-72
2023/02/24 04:12:25;;;;;;;40.93;24.43;;;5.60;99.90;;;5.56;78.34;99147.22;5016871;28;20215;-72
2023/02/24 04:15:03;;;;;;;40.33;25.70;;;5.70;99.90;;;5.56;78.58;99147.22;5014150;28;20207;-71
2023/02/24 04:17:39;;;;;;;39.73;25.43;;;5.60;99.90;;;5.57;78.85;99142.94;5016362;28;20247;-72
2023/02/24 04:20:14;;;;;;;43.93;27.13;;;5.70;99.90;;;5.58;79.06;99139.53;5017332;28;20230;-70
2023/02/24 04:22:48;;;;;;;43.80;26.77;;;5.70;99.90;;;5.61;78.99;99139.50;5014377;28;20668;-73
2023/02/24 04:25:23;;;;;;;44.60;27.27;;;5.70;99.90;;;5.60;79.47;99125.03;5014551;28;20199;-72
2023/02/24 04:27:54;;;;;;;47.37;26.07;;;5.70;99.90;;;5.62;79.81;99125.88;5013928;28;20210;-72
2023/02/24 04:30:26;;;;;;;43.60;28.20;;;5.70;99.90;;;5.65;80.10;99120.75;5016263;28;20223;-72
2023/02/24 04:32:55;;;;;;;40.40;26.90;;;5.70;99.90;;;5.64;79.99;99111.38;5006808;28;20238;-70
2023/02/24 04:35:26;;;;;;;45.13;25.43;;;5.80;99.90;;;5.66;79.82;99112.19;5015852;28;20203;-73
2023/02/24 04:37:55;;;;;;;44.60;27.47;;;5.70;99.90;;;5.65;79.90;99120.75;5015374;28;20230;-74
2023/02/24 04:40:27;;;;;;;46.37;27.40;;;5.80;99.90;;;5.66;80.80;99113.91;5014165;28;20560;-72
2023/02/24 04:42:55;;;;;;;42.43;27.20;;;5.80;99.90;;;5.67;80.75;99111.38;5010519;28;20226;-72
2023/02/24 04:45:26;;;;;;;43.60;27.87;;;5.80;99.90;;;5.69;81.17;99107.06;5014562;28;20210;-71
2023/02/24 04:48:00;;;;;;;46.90;28.17;;;5.80;99.90;;;5.70;81.05;99103.66;5013400;28;20285;-72
2023/02/24 04:50:33;;;;;;;44.93;28.33;;;5.80;99.90;;;5.70;81.51;99103.66;5015619;28;20663;-71
2023/02/24 04:53:06;;;;;;;45.33;29.37;;;5.80;99.90;;;5.71;81.52;99100.25;5016140;28;20261;-71
2023/02/24 04:55:39;;;;;;;46.23;30.37;;;5.90;99.90;;;5.72;81.95;99096.84;5014848;28;20549;-71
2023/02/24 04:58:10;;;;;;;50.73;31.03;;;5.90;99.90;;;5.75;81.84;99096.81;5012591;28;20203;-72
2023/02/24 05:00:41;;;;;;;50.00;30.43;;;5.90;99.90;;;5.79;81.96;99095.94;5017142;28;20215;-71
2023/02/24 05:03:11;;;;;;;53.10;31.80;;;5.90;99.90;;;5.81;82.12;99094.19;5016957;28;20737;-70
2023/02/24 05:05:41;;;;;;;50.43;30.43;;;5.90;99.90;;;5.85;82.75;99086.50;5012289;28;20214;-72
2023/02/24 05:08:14;;;;;;;52.37;31.90;;;6.00;99.90;;;5.89;82.16;99089.06;5007794;28;20318;-73
2023/02/24 05:10:47;;;;;;;49.17;31.50;;;6.00;99.90;;;5.91;82.39;99077.09;5016747;28;20226;-71
2023/02/24 05:13:21;;;;;;;49.17;31.67;;;6.00;99.90;;;5.92;82.92;99083.91;5009084;28;20719;-72
2023/02/24 05:15:49;;;;;;;49.43;31.23;;;6.00;99.90;;;5.95;82.71;99073.69;5013468;28;20630;-71
2023/02/24 05:18:19;;;;;;;50.47;31.70;;;6.10;99.90;;;5.98;82.74;99072.81;5016841;28;20652;-72
2023/02/24 05:23:43;;;;;;;51.43;31.80;;;6.10;99.90;;;6.02;83.29;99077.03;5005569;28;20278;-73
2023/02/24 05:26:16;;;;;;;48.87;31.50;;;6.10;99.90;;;6.03;83.44;99076.16;5012704;28;20238;-71
2023/02/24 05:28:48;;;;;;;49.70;32.93;;;6.10;99.90;;;6.05;83.34;99079.56;5005692;28;20239;-72
2023/02/24 05:31:24;;;;;;;50.93;32.03;;;6.10;99.90;;;6.05;83.27;99066.78;5015059;28;20210;-72
2023/02/24 05:33:57;;;;;;;51.93;32.23;;;6.20;99.90;;;6.05;83.47;99061.66;5014591;28;20210;-73
2023/02/24 05:36:29;;;;;;;51.67;32.20;;;6.20;99.90;;;6.09;83.41;99067.59;5016497;28;20203;-72
2023/02/24 05:39:03;;;;;;;50.90;31.73;;;6.20;99.90;;;6.09;83.81;99065.88;5010063;28;20239;-72
2023/02/24 05:41:37;;;;;;;51.67;31.17;;;6.20;99.90;;;6.10;84.08;99067.56;5012746;28;20576;-72
2023/02/24 05:44:08;;;;;;;48.73;31.43;;;6.20;99.90;;;6.11;84.27;99059.03;5012850;28;20648;-72
2023/02/24 05:46:39;;;;;;;50.97;32.17;;;6.20;99.90;;;6.13;84.27;99061.59;5011027;28;20211;-73
2023/02/24 05:49:13;;;;;;;51.93;31.40;;;6.20;99.90;;;6.14;83.74;99066.69;5016358;28;20238;-71
2023/02/24 05:51:53;;;;;;;48.77;30.57;;;6.30;99.90;;;6.16;83.92;99070.09;5016212;28;20219;-72
2023/02/24 05:54:28;;;;;;;51.53;31.67;;;6.30;99.90;;;6.17;84.09;99071.78;5014579;28;20207;-70
2023/02/24 05:57:00;;;;;;;51.07;31.57;;;6.30;99.90;;;6.18;84.44;99065.78;5010903;28;20202;-73
2023/02/24 05:59:31;;;;;;;49.87;31.37;;;6.30;99.90;;;6.18;83.99;99063.22;5007735;28;20203;-72
2023/02/24 06:02:05;;;;;;;49.33;31.50;;;6.30;99.90;;;6.20;84.12;99066.63;5016541;28;20207;-72
2023/02/24 06:04:45;;;;;;;45.50;30.07;;;6.40;99.90;;;6.23;84.56;99063.22;5013782;28;20229;-73
2023/02/24 06:07:19;;;;;;;48.77;30.17;;;6.40;99.90;;;6.23;84.66;99060.66;5004292;28;20207;-71
2023/02/24 06:09:49;;;;;;;46.60;29.77;;;6.40;99.90;;;6.25;84.77;99054.63;5014296;28;20199;-69
2023/02/24 06:12:20;;;;;;;48.87;29.93;;;6.40;99.90;;;6.28;84.31;99058.88;5010735;28;20219;-66
2023/02/24 06:14:49;;;;;;;45.93;28.50;;;6.40;99.90;;;6.29;84.58;99055.44;5008937;28;20216;-69
2023/02/24 06:17:19;;;;;;;48.23;29.83;;;6.40;99.90;;;6.29;84.55;99053.75;5012756;28;20228;-71
2023/02/24 06:19:51;;;;;;;46.07;28.40;;;6.50;99.90;;;6.32;84.91;99057.97;5014711;28;20203;-70
2023/02/24 06:22:23;;;;;;;49.30;29.13;;;6.50;99.90;;;6.32;84.69;99049.47;5008282;28;20217;-74
2023/02/24 06:24:56;;;;;;;45.03;28.20;;;6.50;99.90;;;6.33;84.74;99051.16;5006552;28;20204;-71
2023/02/24 06:27:28;;;;;;;44.93;28.60;;;6.50;99.90;;;6.35;84.55;99052.84;5012206;28;20203;-73
2023/02/24 06:29:59;;;;;;;51.27;29.13;;;6.60;99.90;;;6.37;85.38;99052.81;5012465;28;20310;-72
2023/02/24 06:32:28;;;;;;;47.63;28.13;;;6.50;99.90;;;6.38;84.93;99046.84;5017437;28;20223;-72
2023/02/24 06:34:58;;;;;;;45.43;27.63;;;6.60;99.90;;;6.40;84.71;99051.06;5013261;28;20221;-71
2023/02/24 06:37:27;;;;;;;44.80;28.93;;;6.60;99.90;;;6.40;84.79;99045.09;5014612;28;20238;-71
2023/02/24 06:39:57;;;;;;;44.63;28.10;;;6.60;99.90;;;6.43;85.10;99034.84;5011330;28;20215;-70
2023/02/24 06:42:27;;;;;;;42.10;27.47;;;6.60;99.90;;;6.44;85.10;99036.53;5012010;28;20210;-71
2023/02/24 06:44:55;;;;;;;44.00;27.97;;;6.60;99.90;;;6.45;85.43;99030.56;5008778;28;20195;-71
2023/02/24 06:47:24;;;;;;;45.57;27.00;;;6.60;99.90;;;6.47;84.88;99031.38;5016491;28;20235;-73
2023/02/24 06:49:54;;;;;;;43.73;27.90;;;6.60;99.90;;;6.48;84.79;99031.38;5016203;28;20215;-72
2023/02/24 06:52:25;;;;;;;42.00;26.47;;;6.60;99.90;;;6.49;84.77;99030.50;5008986;28;22138;-68
2023/02/24 06:54:55;;;;;;;44.30;28.03;;;6.70;99.90;;;6.50;85.04;99027.09;5015068;28;20211;-73
2023/02/24 06:57:27;;;;;;;43.80;26.63;;;6.70;99.90;;;6.52;84.81;99030.47;5020663;28;20295;-72
2023/02/24 06:59:56;;;;;;;48.37;28.30;;;6.60;99.90;;;6.52;84.98;99029.63;5015409;28;20589;-69
2023/02/24 07:02:32;;;;;;;39.90;25.70;;;6.70;99.90;;;6.53;85.13;99028.75;5015097;28;20590;-71
2023/02/24 07:05:00;;;;;;;40.70;25.63;;;6.70;99.90;;;6.53;85.52;99034.72;5010442;28;20297;-75
2023/02/24 07:07:29;;;;;;;39.63;25.27;;;6.70;99.90;;;6.53;84.73;99027.06;5022279;28;20203;-72
2023/02/24 07:10:00;;;;;;;39.50;25.37;;;6.70;99.90;;;6.55;85.25;99024.47;5014753;28;20207;-73
2023/02/24 07:12:30;;;;;;;38.33;25.83;;;6.70;99.90;;;6.57;85.21;99022.75;5017769;28;20247;-72
2023/02/24 07:15:00;;;;;;;39.70;26.20;;;6.90;99.90;;;6.61;85.48;99021.84;5018149;28;20199;-75
2023/02/24 07:17:31;;;;;;;43.07;26.40;;;6.70;99.90;;;6.61;85.56;99019.28;5013918;28;20207;-72
2023/02/24 07:20:23;;;;;;;38.13;24.87;;;6.70;99.90;;;6.61;85.42;99016.72;5018172;28;20200;-72
2023/02/24 07:22:51;;;;;;;37.57;24.13;;;6.70;99.90;;;6.63;85.37;99012.44;5015441;28;20207;-73
2023/02/24 07:25:32;;;;;;;39.77;25.90;;;6.80;99.90;;;6.63;85.36;99001.34;5004097;28;20250;-72
2023/02/24 07:28:02;;;;;;;43.63;25.43;;;6.80;99.90;;;6.65;85.36;99004.72;5017946;28;20323;-73
2023/02/24 07:30:32;;;;;;;39.47;24.20;;;6.80;99.90;;;6.64;85.52;99009.00;5020068;28;20664;-72
2023/02/24 07:33:02;;;;;;;39.80;24.67;;;6.80;99.90;;;6.66;85.40;99006.41;5013948;28;20231;-72
2023/02/24 07:35:32;;;;;;;39.93;25.77;;;6.80;99.90;;;6.68;85.55;99004.69;5020016;28;20203;-72
2023/02/24 07:38:03;;;;;;;42.13;24.93;;;6.80;99.90;;;6.71;85.70;99004.66;5028156;28;20211;-74
2023/02/24 07:40:36;;;;;;;38.67;24.90;;;6.90;99.90;;;6.73;85.22;99003.75;5012948;28;20207;-73
2023/02/24 07:43:08;;;;;;;37.47;24.37;;;6.80;99.90;;;6.73;85.42;98998.63;5023101;28;20199;-72
2023/02/24 07:45:37;;;;;;;37.23;24.17;;;6.90;99.90;;;6.74;85.24;99000.34;5020786;28;20205;-74
2023/02/24 07:48:05;;;;;;;38.30;24.07;;;6.90;99.90;;;6.75;85.52;99001.19;5014268;28;20325;-70
2023/02/24 07:50:36;;;;;;;36.63;22.97;;;6.90;99.90;;;6.78;85.09;98996.03;5016796;28;20210;-75
2023/02/24 07:53:06;;;;;;;39.13;24.33;;;6.90;99.90;;;6.82;85.25;98997.69;5017621;28;20277;-71
2023/02/24 07:55:36;;;;;;;38.27;22.90;;;7.00;99.90;;;6.85;85.57;98992.53;5017848;28;20207;-73
2023/02/24 07:58:09;;;;;;;35.30;22.73;;;7.00;99.90;;;6.89;85.32;98995.91;5021367;28;20246;-73
2023/02/24 08:00:58;;;;;;;34.30;22.30;;;7.00;99.90;;;6.90;84.48;98989.91;5014799;28;20222;-76
2023/02/24 08:03:28;;;;;;;34.30;22.43;;;7.10;99.90;;;6.90;84.78;98990.75;5012699;28;20210;-79
2023/02/24 08:06:11;;;;;;;34.80;21.87;;;7.10;99.90;;;6.92;84.75;98981.34;5013351;28;20219;-75
2023/02/24 08:08:56;;;;;;;32.07;21.77;;;7.10;99.90;;;6.95;84.83;98981.28;5011143;28;20207;-73
2023/02/24 08:11:33;;;;;;;33.73;20.70;;;7.10;99.90;;;6.98;84.89;98982.97;5016082;28;20199;-76
2023/02/24 08:14:09;;;;;;;31.13;21.47;;;7.10;99.90;;;7.00;84.86;98976.13;5016188;28;20219;-71
2023/02/24 08:16:39;;;;;;;33.33;21.17;;;7.20;99.90;;;7.02;85.24;98974.34;5015515;28;20198;-73
2023/02/24 08:19:13;;;;;;;33.77;22.27;;;7.20;99.90;;;7.05;84.72;98973.47;5019805;28;20203;-70
2023/02/24 08:21:46;;;;;;;32.57;20.20;;;7.20;99.90;;;7.08;84.52;98973.44;5028484;28;20207;-70
2023/02/24 08:24:17;;;;;;;33.30;20.17;;;7.20;99.90;;;7.10;84.83;98967.41;5022591;28;20199;-77
2023/02/24 08:27:02;;;;;;;31.83;20.97;;;7.30;99.90;;;7.14;84.45;98963.06;5017657;28;20207;-72
2023/02/24 08:29:39;;;;;;;33.43;20.77;;;7.30;99.90;;;7.17;84.70;98965.59;5009605;28;20610;-71
2023/02/24 08:32:09;;;;;;;31.37;20.33;;;7.30;99.90;;;7.17;84.34;98958.75;5011506;28;20191;-71
2023/02/24 08:34:38;;;;;;;31.17;20.77;;;7.30;99.90;;;7.19;84.99;98956.19;5015993;28;20266;-72
2023/02/24 08:37:06;;;;;;;30.33;19.43;;;7.40;99.90;;;7.22;84.73;98951.88;5016389;28;20227;-70
2023/02/24 08:39:35;;;;;;;32.53;20.60;;;7.40;99.90;;;7.22;84.02;98946.75;5016507;28;20675;-71
2023/02/24 08:42:03;;;;;;;34.10;20.60;;;7.40;99.90;;;7.26;84.65;98953.50;5009575;28;20207;-72
2023/02/24 08:44:36;;;;;;;29.57;20.13;;;7.40;99.90;;;7.26;84.07;98950.94;4999460;28;20652;-72
2023/02/24 08:47:06;;;;;;;33.37;19.97;;;7.40;99.90;;;7.28;84.55;98955.19;5003558;28;20262;-71
2023/02/24 08:49:34;;;;;;;32.17;19.27;;;7.40;99.90;;;7.28;83.74;98944.94;5008064;28;20664;-69
2023/02/24 08:52:06;;;;;;;31.77;19.37;;;7.40;99.90;;;7.29;83.89;98944.06;5012587;28;20226;-73
2023/02/24 08:54:45;;;;;;;28.97;19.20;;;7.40;99.90;;;7.32;84.15;98936.34;5007323;28;20226;-72
2023/02/24 08:57:16;;;;;;;28.47;19.47;;;7.40;99.90;;;7.33;83.64;98938.00;5016762;28;20219;-70
2023/02/24 08:59:49;;;;;;;28.23;20.30;;;7.50;99.90;;;7.35;83.69;98932.00;5027599;28;20210;-69
2023/02/24 09:02:26;;;;;;;27.63;18.90;;;7.50;99.90;;;7.36;84.04;98933.69;5012484;28;20199;-72
2023/02/24 09:04:57;;;;;;;28.17;19.07;;;7.50;99.90;;;7.39;84.55;98927.69;5010304;28;20624;-70
2023/02/24 09:07:29;;;;;;;30.27;19.63;;;7.50;99.90;;;7.42;83.90;98917.38;5012041;28;20278;-70
2023/02/24 09:09:59;;;;;;;29.50;19.13;;;7.50;99.90;;;7.40;84.07;98914.84;5011744;28;20207;-69
2023/02/24 09:12:30;;;;;;;29.87;17.73;;;7.50;99.90;;;7.41;83.54;98910.56;5015093;28;20204;-70
2023/02/24 09:15:03;;;;;;;30.97;17.83;;;7.50;99.90;;;7.42;83.65;98913.09;5008315;28;20211;-71
2023/02/24 09:17:49;;;;;;;29.13;18.53;;;7.50;99.90;;;7.43;83.23;98908.81;5013519;28;20263;-74
2023/02/24 09:20:55;;;;;;;33.77;19.53;;;7.50;99.90;;;7.40;83.69;98908.84;5008052;28;20274;-73
2023/02/24 09:23:29;;;;;;;29.70;19.23;;;7.50;99.90;;;7.40;83.89;98902.03;5013976;28;20622;-73
2023/02/24 09:26:09;;;;;;;28.50;18.97;;;7.50;99.90;;;7.40;83.74;98898.59;5012318;28;20203;-74
2023/02/24 09:28:47;;;;;;;27.57;19.20;;;7.50;99.90;;;7.36;84.01;98896.97;5003893;28;20258;-76
2023/02/24 09:31:17;;;;;;;28.43;18.37;;;7.50;99.90;;;7.37;83.55;98898.69;5015164;28;20202;-76
2023/02/24 09:33:49;;;;;;;28.30;18.87;;;7.50;99.90;;;7.36;84.37;98902.94;5010213;28;20235;-73
2023/02/24 09:36:26;;;;;;;27.17;18.57;;;7.50;99.90;;;7.34;84.30;98894.44;5016215;28;20207;-73
2023/02/24 09:39:13;;;;;;;28.03;18.53;;;7.50;99.90;;;7.36;83.99;98899.53;5012751;28;20207;-75
2023/02/24 09:44:33;;;;;;;29.27;18.13;;;7.50;99.90;;;7.39;83.84;98884.13;4970010;28;20261;-71
2023/02/24 09:47:17;;;;;;;28.60;18.77;;;7.50;99.90;;;7.42;84.62;98887.47;5013517;28;20575;-74
2023/02/24 09:49:57;;;;;;;27.47;17.43;;;7.50;99.90;;;7.46;84.25;98883.13;5021921;28;20217;-76
2023/02/24 09:52:38;;;;;;;23.90;16.40;;;7.50;99.90;;;7.48;84.02;98882.25;5014576;28;20195;-73
2023/02/24 09:55:28;;;;;;;25.40;16.67;;;7.60;99.90;;;7.49;83.84;98881.38;5010359;28;20821;-74
2023/02/24 09:58:24;;;;;;;23.37;16.00;;;7.60;99.90;;;7.48;83.95;98881.41;5010083;28;20652;-73
2023/02/24 10:01:32;;;;;;;22.37;15.40;;;7.60;99.90;;;7.46;84.09;98878.84;5007764;28;20199;-73
2023/02/24 10:04:30;;;;;;;22.57;15.27;;;7.60;99.90;;;7.49;84.48;98875.41;5008709;28;20208;-73
2023/02/24 10:07:04;;;;;;;21.40;14.80;;;7.60;99.90;;;7.49;83.98;98871.09;5010575;28;20199;-71
2023/02/24 10:09:42;;;;;;;21.40;15.07;;;7.60;99.90;;;7.51;84.16;98868.50;5009279;28;20664;-74
2023/02/24 10:12:22;;;;;;;21.80;15.63;;;7.60;99.90;;;7.53;84.22;98873.63;5009110;28;20203;-77
2023/02/24 10:15:17;;;;;;;21.43;15.60;;;7.60;99.90;;;7.51;83.92;98865.94;5013293;28;20265;-69
2023/02/24 10:17:54;;;;;;;24.60;16.47;;;7.60;99.90;;;7.51;83.70;98865.94;5012935;28;20215;-71
2023/02/24 10:20:38;;;;;;;23.53;15.83;;;7.60;99.90;;;7.50;83.74;98869.38;5013439;28;20664;-71
2023/02/24 10:23:28;;;;;;;22.40;16.40;;;7.60;99.90;;;7.45;83.87;98860.94;5000459;28;20290;-71
2023/02/24 10:26:05;;;;;;;24.00;16.67;;;7.50;99.90;;;7.44;84.60;98867.78;5011078;28;20215;-70
2023/02/24 10:28:50;;;;;;;22.90;15.90;;;7.50;99.90;;;7.39;84.13;98867.00;5005479;28;20318;-72
2023/02/24 10:31:29;;;;;;;21.27;14.73;;;7.50;99.90;;;7.36;84.21;98866.22;5005254;28;20866;-72
2023/02/24 10:34:05;;;;;;;18.90;13.30;;;7.50;99.90;;;7.36;84.07;98861.09;5005975;28;20231;-73
2023/02/24 10:36:36;;;;;;;19.53;12.90;;;7.50;99.90;;;7.35;83.77;98859.41;5012511;28;20199;-72
2023/02/24 10:39:15;;;;;;;18.43;11.97;;;7.50;99.90;;;7.33;83.22;98851.78;5005669;28;20210;-72
2023/02/24 10:41:48;;;;;;;18.70;12.77;;;7.40;99.90;;;7.32;83.10;98841.53;5010445;28;20200;-72
2023/02/24 10:44:25;;;;;;;17.47;11.37;;;7.40;99.90;;;7.32;82.86;98839.81;5004875;28;20557;-72
2023/02/24 10:47:13;;;;;;;17.60;11.30;;;7.40;99.90;;;7.33;83.58;98838.09;5008581;28;20202;-73
2023/02/24 10:49:55;;;;;;;15.53;10.70;;;7.40;99.90;;;7.34;83.09;98835.50;5002199;28;20279;-70
2023/02/24 10:53:09;;;;;;;17.53;11.13;;;7.50;99.90;;;7.33;82.71;98833.84;5013400;28;20211;-72
2023/02/24 10:56:13;;;;;;;16.67;10.60;;;7.40;99.90;;;7.32;82.21;98831.28;4997901;28;20226;-71
2023/02/24 10:58:55;;;;;;;15.20;10.37;;;7.40;99.90;;;7.31;82.13;98834.72;5004486;28;20261;-71
2023/02/24 11:01:42;;;;;;;13.73;9.43;;;7.40;99.90;;;7.26;82.35;98825.41;5011710;28;20211;-72
2023/02/24 11:04:42;;;;;;;12.70;9.13;;;7.40;99.90;;;7.28;81.72;98822.81;5010273;28;20265;-72
2023/02/24 11:07:23;;;;;;;13.63;8.40;;;7.40;99.90;;;7.27;81.69;98813.44;5008971;28;20245;-72